createdAt,value
2023-03-22T00:04:43.404Z,43.25
2023-03-22T00:09:46.360Z,42.05
2023-03-22T00:14:50.234Z,43.12
2023-03-22T00:19:54.736Z,43.87
2023-03-22T00:24:58.144Z,44.63
2023-03-22T00:30:01.661Z,43.83
2023-03-22T00:35:06.387Z,45.12
2023-03-22T00:40:12.670Z,44.04
2023-03-22T00:45:15.741Z,44.22
2023-03-22T00:50:19.046Z,44.00
2023-03-22T00:55:22.531Z,43.80
2023-03-22T01:00:25.609Z,44.25
2023-03-22T01:05:28.810Z,44.08
2023-03-22T01:10:31.977Z,44.53
2023-03-22T01:15:34.746Z,44.96
2023-03-22T01:20:38.500Z,44.82
2023-03-22T01:25:42.170Z,44.85
2023-03-22T01:30:45.506Z,44.60
2023-03-22T01:35:48.721Z,45.32
2023-03-22T01:40:52.938Z,45.32
2023-03-22T01:45:56.366Z,45.63
2023-03-22T01:51:09.091Z,46.26
2023-03-22T01:56:44.052Z,46.72
2023-03-22T02:01:54.812Z,46.42
2023-03-22T02:06:59.310Z,46.88
2023-03-22T02:12:17.693Z,46.53
2023-03-22T02:17:45.480Z,47.32
2023-03-22T02:22:58.665Z,47.16
2023-03-22T02:28:35.438Z,46.21
2023-03-22T02:33:41.534Z,47.48
2023-03-22T02:39:14.403Z,48.47
2023-03-22T02:44:22.797Z,48.18
2023-03-22T02:49:35.062Z,48.41
2023-03-22T02:54:57.024Z,48.66
2023-03-22T03:00:01.634Z,48.53
2023-03-22T03:05:06.839Z,49.26
2023-03-22T03:10:15.009Z,50.40
2023-03-22T03:15:22.527Z,50.46
2023-03-22T03:20:47.341Z,50.17
2023-03-22T03:26:06.769Z,49.94
2023-03-22T03:31:27.425Z,49.97
2023-03-22T03:36:35.511Z,49.93
2023-03-22T03:41:43.012Z,49.82
2023-03-22T03:46:47.013Z,50.23
2023-03-22T03:51:54.301Z,51.01
2023-03-22T03:56:57.146Z,50.15
2023-03-22T04:02:00.652Z,49.82
2023-03-22T04:07:07.457Z,50.05
2023-03-22T04:12:12.807Z,50.05
2023-03-22T04:17:16.451Z,49.90
2023-03-22T04:22:20.520Z,50.06
2023-03-22T04:27:23.495Z,50.04
2023-03-22T04:32:32.566Z,49.71
2023-03-22T04:37:35.336Z,49.27
2023-03-22T04:42:58.277Z,48.66
2023-03-22T04:48:20.769Z,48.32
2023-03-22T04:53:28.171Z,47.06
2023-03-22T04:58:42.842Z,47.42
2023-03-22T05:03:47.706Z,46.60
2023-03-22T05:08:56.812Z,47.47
2023-03-22T05:14:01.365Z,47.32
2023-03-22T05:19:06.878Z,47.58
2023-03-22T05:24:12.414Z,47.71
2023-03-22T05:29:17.875Z,47.75
2023-03-22T05:34:36.555Z,47.56
2023-03-22T05:39:55.208Z,47.80
2023-03-22T05:45:07.158Z,47.63
2023-03-22T05:50:15.759Z,46.35
2023-03-22T05:55:19.276Z,45.51
2023-03-22T06:00:26.259Z,45.19
2023-03-22T06:06:11.034Z,45.05
2023-03-22T06:11:21.513Z,44.19
2023-03-22T06:16:25.745Z,43.29
2023-03-22T06:21:28.862Z,43.24
2023-03-22T06:26:32.233Z,42.67
2023-03-22T06:31:35.735Z,42.67
2023-03-22T06:36:47.720Z,42.48
2023-03-22T06:42:09.826Z,41.70
2023-03-22T06:47:14.858Z,41.39
2023-03-22T06:52:39.916Z,39.74
2023-03-22T06:57:49.905Z,38.72
2023-03-22T07:03:11.754Z,37.26
2023-03-22T07:08:23.341Z,37.41
2023-03-22T07:13:29.112Z,36.67
2023-03-22T07:18:44.198Z,36.54
2023-03-22T07:23:48.638Z,35.87
2023-03-22T07:28:54.948Z,36.53
2023-03-22T07:34:07.308Z,36.90
2023-03-22T07:39:26.045Z,36.70
2023-03-22T07:44:30.539Z,36.94
2023-03-22T07:49:53.946Z,37.83
2023-03-22T07:55:02.071Z,37.58
2023-03-22T08:00:12.180Z,37.30
2023-03-22T08:05:53.874Z,37.93
2023-03-22T08:10:59.140Z,38.29
2023-03-22T08:16:02.089Z,37.41
2023-03-22T08:21:08.367Z,37.04
2023-03-22T08:26:13.848Z,36.94
2023-03-22T08:31:19.049Z,37.02
2023-03-22T08:36:23.514Z,36.89
2023-03-22T08:41:36.664Z,36.16
2023-03-22T08:46:43.338Z,36.01
2023-03-22T08:51:49.903Z,36.06
2023-03-22T08:57:05.672Z,36.11
2023-03-22T09:02:20.485Z,35.98
2023-03-22T09:07:24.609Z,35.73
2023-03-22T09:12:49.657Z,35.57
2023-03-22T09:17:57.278Z,35.54
2023-03-22T09:23:00.415Z,35.71
2023-03-22T09:28:04.419Z,35.52
2023-03-22T09:33:08.660Z,35.43
2023-03-22T09:38:14.538Z,36.17
2023-03-22T09:43:21.418Z,36.09
2023-03-22T09:48:36.156Z,36.16
2023-03-22T09:53:38.559Z,37.34
2023-03-22T09:59:06.278Z,36.99
2023-03-22T10:04:21.809Z,37.45
2023-03-22T10:09:57.194Z,37.55
2023-03-22T10:15:04.542Z,36.40
2023-03-22T10:20:18.942Z,36.25
2023-03-22T10:25:28.406Z,35.53
2023-03-22T10:30:39.017Z,35.72
2023-03-22T10:35:44.948Z,34.76
2023-03-22T10:40:51.116Z,34.31
2023-03-22T10:45:57.234Z,34.84
2023-03-22T10:51:04.558Z,34.49
2023-03-22T10:56:14.125Z,34.79
2023-03-22T11:01:33.567Z,33.64
2023-03-22T11:06:50.166Z,35.11
2023-03-22T11:11:58.575Z,35.07
2023-03-22T11:17:10.924Z,35.90
2023-03-22T11:22:39.832Z,35.92
2023-03-22T11:27:57.961Z,36.16
2023-03-22T11:33:23.170Z,36.35
2023-03-22T11:38:32.638Z,36.24
2023-03-22T11:43:50.204Z,36.79
2023-03-22T11:49:01.316Z,36.56
2023-03-22T11:54:23.324Z,37.14
2023-03-22T11:59:32.872Z,36.92
2023-03-22T12:04:40.411Z,37.93
2023-03-22T12:10:09.194Z,37.88
2023-03-22T12:15:32.569Z,38.49
2023-03-22T12:21:01.144Z,38.44
2023-03-22T12:32:30.329Z,38.64
2023-03-22T12:37:43.436Z,38.87
2023-03-22T12:43:18.944Z,38.96
2023-03-22T12:49:05.417Z,39.20
2023-03-22T12:54:14.753Z,39.20
2023-03-22T12:59:26.029Z,39.20
2023-03-22T13:04:39.746Z,39.04
2023-03-22T13:09:50.039Z,39.35
2023-03-22T13:20:24.699Z,39.56
2023-03-22T13:25:32.133Z,40.28
2023-03-22T13:30:54.971Z,40.15
2023-03-22T13:36:29.722Z,40.12
2023-03-22T13:41:43.785Z,40.55
2023-03-22T13:47:34.774Z,40.18
2023-03-22T13:53:10.130Z,40.35
2023-03-22T13:58:33.338Z,40.65
2023-03-22T14:03:41.317Z,40.38
2023-03-22T14:08:47.511Z,40.86
2023-03-22T14:13:55.045Z,40.51
2023-03-22T14:18:58.296Z,40.90
